Airfield :
LOGIN :

Register | Disclaimer

   EN    FR    IT 

 










Legend :    VFR   Marginal VFR   IFR   Intensive IFR   Very Intensive IFR
Visi :
Ceiling :
>= 8 km
>= 3000ft
5 to 8 km
1000 to 3000 ft
1500m to 5 km
500 to 1000 ft
800 to 1500m
200 to 500 ft
< 800m
< 200 ft
Symbols :   Thunderstorms  Fog  Heavy snow  Heavy precipitations  Wind > 20 kt
SIGMETs :     Misc.  Thunderstorms  Icing  Turbulence  Mountain Waves  Volcanic Ashes






- Airport Elevation : 202 ft
- IATA code : LGW


EGKK - London Gatwick

CURRENT METAR :
  • 071850Z 22009KT 9999 SCT022 14/12 Q1017

EXPIRED METARs :
  • 071820Z 23010KT 9999 -SHRA FEW014 SCT020 15/11 Q1017
  • 071750Z 22009KT 180V250 9999 BKN046 15/11 Q1017
  • 071720Z 22011KT 9999 SCT026 16/11 Q1017
  • 071650Z 22011KT 9999 FEW027 16/11 Q1017
  • 071620Z 23012KT 200V260 9999 FEW025 16/11 Q1017
  • 071550Z 23010KT 9999 FEW028 16/10 Q1017

TAF TAF EGKK
Valid from the 07 at 18:00 until the 09 at 00:00 UTC


071652Z 0718/0824 24009KT 9999 SCT030
PROB30
TEMPO 0718/0720 23018G28KT 4000 +SHRA



MET'MAP, your aeronautical weather chart ! - Copyright ORBIFLY December 2007 - Disclaimer

ORBIFLY MET'MAP TEAM :

Programming & Development : Alexandra Zaïnal
Original concept : Baudouin d'Aumeries
Technical & hardware support : Manuel Goepfert
Assistance : Marc-Olivier Méhu




SOURCES & CREDITS :

   NOAA